createdAt,value
2017-08-21T00:01:24.588Z,90.60
2017-08-21T00:03:52.138Z,90.70
2017-08-21T00:06:19.641Z,90.70
2017-08-21T00:08:47.172Z,90.70
2017-08-21T00:11:15.601Z,90.80
2017-08-21T00:13:43.130Z,90.70
2017-08-21T00:16:10.679Z,90.60
2017-08-21T00:18:38.188Z,91.40
2017-08-21T00:21:05.732Z,91.20
2017-08-21T00:23:33.246Z,91.30
2017-08-21T00:26:00.796Z,91.00
2017-08-21T00:28:28.313Z,90.80
2017-08-21T00:30:55.827Z,90.80
2017-08-21T00:33:23.364Z,90.60
2017-08-21T00:35:50.866Z,90.50
2017-08-21T00:38:18.407Z,90.50
2017-08-21T00:40:46.411Z,90.30
2017-08-21T00:43:14.516Z,90.40
2017-08-21T00:45:42.038Z,90.30
2017-08-21T00:48:09.544Z,90.60
2017-08-21T00:50:37.091Z,90.70
2017-08-21T00:53:04.619Z,90.70
2017-08-21T00:55:32.168Z,90.70
2017-08-21T00:57:59.692Z,90.60
2017-08-21T01:00:27.255Z,91.00
2017-08-21T01:02:54.771Z,90.90
2017-08-21T01:05:22.310Z,90.90
2017-08-21T01:07:49.846Z,91.00
2017-08-21T01:10:17.351Z,91.00
2017-08-21T01:12:44.915Z,91.20
2017-08-21T01:15:12.441Z,90.90
2017-08-21T01:17:39.980Z,91.00
2017-08-21T01:20:07.518Z,90.90
2017-08-21T01:22:35.055Z,90.90
2017-08-21T01:25:02.569Z,90.90
2017-08-21T01:27:30.111Z,91.40
2017-08-21T01:29:57.608Z,91.30
2017-08-21T01:32:30.517Z,91.20
2017-08-21T01:34:58.029Z,91.00
2017-08-21T01:37:25.540Z,90.90
2017-08-21T01:39:53.076Z,91.40
2017-08-21T01:42:20.603Z,91.70
2017-08-21T01:44:48.147Z,91.50
2017-08-21T01:47:16.811Z,91.90
2017-08-21T01:49:45.443Z,92.00
2017-08-21T01:52:12.953Z,92.00
2017-08-21T01:54:40.472Z,92.10
2017-08-21T01:57:08.014Z,92.10
2017-08-21T01:59:35.522Z,92.00
2017-08-21T02:02:03.053Z,91.80
2017-08-21T02:04:30.561Z,92.00
2017-08-21T02:06:58.219Z,91.90
2017-08-21T02:09:25.767Z,92.30
2017-08-21T02:11:53.291Z,92.50
2017-08-21T02:14:20.829Z,92.40
2017-08-21T02:16:48.333Z,92.50
2017-08-21T02:19:16.863Z,92.70
2017-08-21T02:21:45.372Z,92.60
2017-08-21T02:24:12.933Z,92.60
2017-08-21T02:26:40.446Z,92.40
2017-08-21T02:29:07.958Z,92.40
2017-08-21T02:31:35.477Z,92.30
2017-08-21T02:34:02.982Z,92.40
2017-08-21T02:36:30.520Z,92.10
2017-08-21T02:38:58.070Z,92.00
2017-08-21T02:41:25.630Z,92.30
2017-08-21T02:43:53.146Z,92.20
2017-08-21T02:46:20.663Z,92.10
2017-08-21T02:48:48.199Z,92.10
2017-08-21T02:51:16.998Z,92.20
2017-08-21T02:53:45.266Z,92.20
2017-08-21T02:56:12.791Z,92.60
2017-08-21T02:58:40.321Z,92.30
2017-08-21T03:01:07.864Z,92.40
2017-08-21T03:03:35.385Z,92.60
2017-08-21T03:06:02.936Z,92.50
2017-08-21T03:08:30.461Z,92.40
2017-08-21T03:10:58.001Z,92.20
2017-08-21T03:13:25.553Z,92.70
2017-08-21T03:15:53.094Z,92.20
2017-08-21T03:18:20.638Z,92.00
2017-08-21T03:20:48.145Z,92.00
2017-08-21T03:23:16.640Z,91.90
2017-08-21T03:25:44.569Z,91.70
2017-08-21T03:28:12.092Z,92.50
2017-08-21T03:30:39.626Z,92.30
2017-08-21T03:33:07.155Z,92.50
2017-08-21T03:35:34.732Z,92.40
2017-08-21T03:38:02.264Z,92.60
2017-08-21T03:40:29.794Z,92.70
2017-08-21T03:42:57.344Z,92.10
2017-08-21T03:45:24.893Z,91.80
2017-08-21T03:47:52.439Z,92.30
2017-08-21T03:50:19.983Z,92.40
2017-08-21T03:52:47.545Z,92.70
2017-08-21T03:55:15.056Z,92.10
2017-08-21T03:57:42.580Z,91.70
2017-08-21T04:00:10.121Z,92.10
2017-08-21T04:02:37.647Z,92.10
2017-08-21T04:05:05.184Z,92.50
2017-08-21T04:07:32.722Z,92.00
2017-08-21T04:10:00.260Z,91.90
2017-08-21T04:12:27.795Z,92.00
2017-08-21T04:14:55.310Z,92.30
2017-08-21T04:17:22.849Z,92.60
2017-08-21T04:19:50.376Z,92.50
2017-08-21T04:22:17.932Z,92.70
2017-08-21T04:24:46.148Z,93.00
2017-08-21T04:27:13.707Z,93.10
2017-08-21T04:29:41.235Z,93.30
2017-08-21T04:32:08.764Z,93.30
2017-08-21T04:34:36.315Z,93.30
2017-08-21T04:37:03.831Z,93.60
2017-08-21T04:39:31.383Z,93.30
2017-08-21T04:41:58.897Z,92.80
2017-08-21T04:44:26.462Z,93.10
2017-08-21T04:46:53.978Z,93.10
2017-08-21T04:49:21.507Z,93.50
2017-08-21T04:51:49.054Z,93.70
2017-08-21T04:54:16.575Z,93.40
2017-08-21T04:56:44.680Z,93.80
2017-08-21T04:59:12.206Z,93.50
2017-08-21T05:01:39.756Z,93.50
2017-08-21T05:04:07.268Z,93.20
2017-08-21T05:06:34.788Z,93.50
2017-08-21T05:09:02.342Z,93.70
2017-08-21T05:11:29.854Z,93.00
2017-08-21T05:13:57.390Z,92.90
2017-08-21T05:16:24.937Z,93.10
2017-08-21T05:18:52.479Z,93.60
2017-08-21T05:21:20.007Z,93.60
2017-08-21T05:23:47.522Z,93.60
2017-08-21T05:26:15.075Z,93.90
2017-08-21T05:28:42.588Z,94.20
2017-08-21T05:31:10.121Z,93.70
2017-08-21T05:33:37.643Z,93.80
2017-08-21T05:36:05.199Z,93.60
2017-08-21T05:38:32.732Z,93.60
2017-08-21T05:41:00.267Z,93.80
2017-08-21T05:43:27.824Z,94.10
2017-08-21T05:45:55.341Z,93.40
2017-08-21T05:48:22.891Z,92.50
2017-08-21T05:50:50.414Z,92.60
2017-08-21T05:53:17.959Z,92.30
2017-08-21T05:55:46.742Z,92.50
2017-08-21T05:58:14.688Z,92.60
2017-08-21T06:00:42.247Z,92.60
2017-08-21T06:03:09.779Z,92.40
2017-08-21T06:05:37.301Z,92.30
2017-08-21T06:08:04.817Z,92.40
2017-08-21T06:10:32.392Z,92.60
2017-08-21T06:12:59.911Z,92.10
2017-08-21T06:15:27.441Z,92.10
2017-08-21T06:17:54.980Z,91.60
2017-08-21T06:20:22.488Z,91.50
2017-08-21T06:22:50.028Z,91.60
2017-08-21T06:25:17.549Z,91.60
2017-08-21T06:27:45.503Z,91.50
2017-08-21T06:30:13.129Z,91.30
2017-08-21T06:32:40.639Z,91.30
2017-08-21T06:35:08.191Z,91.40
2017-08-21T06:37:35.716Z,91.30
2017-08-21T06:40:03.256Z,91.30
2017-08-21T06:42:30.788Z,90.90
2017-08-21T06:44:58.327Z,90.60
2017-08-21T06:47:25.842Z,90.90
2017-08-21T06:49:53.384Z,90.80
2017-08-21T06:52:20.899Z,91.10
2017-08-21T06:54:48.429Z,90.70
2017-08-21T06:57:16.679Z,90.20
2017-08-21T06:59:44.678Z,89.70
2017-08-21T07:02:12.209Z,89.60
2017-08-21T07:04:39.726Z,88.40
2017-08-21T07:07:07.255Z,88.00
2017-08-21T07:09:34.763Z,87.80
2017-08-21T07:12:02.299Z,87.80
2017-08-21T07:14:29.823Z,86.90
2017-08-21T07:16:57.334Z,85.70
2017-08-21T07:19:24.872Z,85.40
2017-08-21T07:21:52.394Z,85.30
2017-08-21T07:24:20.947Z,83.90
2017-08-21T07:26:48.462Z,83.60
2017-08-21T07:29:16.929Z,82.80
2017-08-21T07:31:45.438Z,82.00
2017-08-21T07:34:12.999Z,82.70
2017-08-21T07:36:40.551Z,82.50
2017-08-21T07:39:08.100Z,82.40
2017-08-21T07:41:35.637Z,81.20
2017-08-21T07:44:03.137Z,79.10
2017-08-21T07:46:30.698Z,78.20
2017-08-21T07:48:58.208Z,78.00
2017-08-21T07:51:25.746Z,76.80
2017-08-21T07:53:53.267Z,75.70
2017-08-21T07:56:20.832Z,75.80
2017-08-21T07:58:48.717Z,74.70
2017-08-21T08:01:16.700Z,75.20
2017-08-21T08:03:44.679Z,73.80
2017-08-21T08:06:12.191Z,74.20
2017-08-21T08:08:39.723Z,74.20
2017-08-21T08:11:07.294Z,74.70
2017-08-21T08:13:34.843Z,71.90
2017-08-21T08:16:02.341Z,71.20
2017-08-21T08:18:29.867Z,71.90
2017-08-21T08:20:57.370Z,70.60
2017-08-21T08:23:24.892Z,71.80
2017-08-21T08:25:52.458Z,72.90
2017-08-21T08:28:19.999Z,72.10
2017-08-21T08:30:47.551Z,69.60
2017-08-21T08:33:15.950Z,68.90
2017-08-21T08:35:43.476Z,68.60
2017-08-21T08:38:10.990Z,69.20
2017-08-21T08:40:38.535Z,68.50
2017-08-21T08:43:06.056Z,69.80
2017-08-21T08:45:33.581Z,67.30
2017-08-21T08:48:01.102Z,68.80
2017-08-21T08:50:28.614Z,66.90
2017-08-21T08:52:56.145Z,66.90
2017-08-21T08:55:23.672Z,67.00
2017-08-21T08:57:51.206Z,68.40
2017-08-21T09:00:18.763Z,69.00
2017-08-21T09:02:46.945Z,68.70
2017-08-21T09:05:15.579Z,66.30
2017-08-21T09:07:43.085Z,65.40
2017-08-21T09:10:10.626Z,64.10
2017-08-21T09:12:38.142Z,64.70
2017-08-21T09:15:05.667Z,65.70
2017-08-21T09:17:33.208Z,67.20
2017-08-21T09:20:00.743Z,66.10
2017-08-21T09:22:28.300Z,65.00
2017-08-21T09:24:55.820Z,64.70
2017-08-21T09:27:23.341Z,66.20
2017-08-21T09:29:50.853Z,66.10
2017-08-21T09:32:18.399Z,64.90
2017-08-21T09:34:47.214Z,64.50
2017-08-21T09:37:14.777Z,65.50
2017-08-21T09:39:42.348Z,65.50
2017-08-21T09:42:09.861Z,64.20
2017-08-21T09:44:37.384Z,64.10
2017-08-21T09:47:04.910Z,64.80
2017-08-21T09:49:32.435Z,64.10
2017-08-21T09:51:59.933Z,63.70
2017-08-21T09:54:27.445Z,62.60
2017-08-21T09:56:54.983Z,61.60
2017-08-21T09:59:22.499Z,60.00
2017-08-21T10:01:50.050Z,56.60
2017-08-21T10:04:17.569Z,57.70
2017-08-21T10:06:46.019Z,60.00
2017-08-21T10:09:13.541Z,59.50
2017-08-21T10:11:41.050Z,59.80
2017-08-21T10:14:08.583Z,58.70
2017-08-21T10:16:36.116Z,61.30
2017-08-21T10:19:03.646Z,61.90
2017-08-21T10:21:31.167Z,59.80
2017-08-21T10:23:58.722Z,58.00
2017-08-21T10:26:26.309Z,59.30
2017-08-21T10:28:53.923Z,55.90
2017-08-21T10:31:21.473Z,57.50
2017-08-21T10:33:49.140Z,56.00
2017-08-21T10:36:16.733Z,56.30
2017-08-21T10:38:44.726Z,57.80
2017-08-21T10:41:12.267Z,58.50
2017-08-21T10:43:39.783Z,59.70
2017-08-21T10:46:07.308Z,58.20
2017-08-21T10:48:34.813Z,56.80
2017-08-21T10:51:02.327Z,56.70
2017-08-21T10:53:29.869Z,55.90
2017-08-21T10:55:57.378Z,54.40
2017-08-21T10:58:24.904Z,54.80
2017-08-21T11:00:52.401Z,56.00
2017-08-21T11:03:19.917Z,55.90
2017-08-21T11:05:47.417Z,55.50
2017-08-21T11:08:15.782Z,56.00
2017-08-21T11:10:43.278Z,56.60
2017-08-21T11:13:10.787Z,56.20
2017-08-21T11:15:38.316Z,56.50
2017-08-21T11:18:05.835Z,55.20
2017-08-21T11:20:33.391Z,56.40
2017-08-21T11:23:00.890Z,55.50
2017-08-21T11:25:28.405Z,55.40
2017-08-21T11:27:55.907Z,56.40
2017-08-21T11:30:23.456Z,56.40
2017-08-21T11:32:50.970Z,55.70
2017-08-21T11:35:18.786Z,55.70
2017-08-21T11:37:46.796Z,55.50
2017-08-21T11:40:14.926Z,56.60
2017-08-21T11:42:42.452Z,56.90
2017-08-21T11:45:09.963Z,57.40
2017-08-21T11:47:37.479Z,56.60
2017-08-21T11:50:04.999Z,58.70
2017-08-21T11:52:32.538Z,58.20
2017-08-21T11:55:00.072Z,57.60
2017-08-21T11:57:27.618Z,56.60
2017-08-21T11:59:55.110Z,56.10
2017-08-21T12:02:22.609Z,57.70
2017-08-21T12:04:50.351Z,56.30
2017-08-21T12:07:17.867Z,58.50
2017-08-21T12:09:45.408Z,58.00
2017-08-21T12:12:12.935Z,57.70
2017-08-21T12:14:40.468Z,57.80
2017-08-21T12:17:07.969Z,58.00
2017-08-21T12:19:35.493Z,57.60
2017-08-21T12:22:03.032Z,57.30
2017-08-21T12:24:30.540Z,59.20
2017-08-21T12:26:58.067Z,57.30
2017-08-21T12:29:25.562Z,57.20
2017-08-21T12:31:53.105Z,56.30
2017-08-21T12:34:20.620Z,56.30
2017-08-21T12:36:48.144Z,55.00
2017-08-21T12:39:16.809Z,55.20
2017-08-21T12:41:45.026Z,54.50
2017-08-21T12:44:12.713Z,56.00
2017-08-21T12:46:40.229Z,55.70
2017-08-21T12:49:07.777Z,58.20
2017-08-21T12:51:35.274Z,58.00
2017-08-21T12:54:02.808Z,56.70
2017-08-21T12:56:30.335Z,56.30
2017-08-21T12:58:57.851Z,55.30
2017-08-21T13:01:25.370Z,55.30
2017-08-21T13:03:52.887Z,54.90
2017-08-21T13:06:20.420Z,56.50
2017-08-21T13:08:47.942Z,56.20
2017-08-21T13:11:15.470Z,56.20
2017-08-21T13:13:42.975Z,55.90
2017-08-21T13:16:10.515Z,57.90
2017-08-21T13:18:38.028Z,55.20
2017-08-21T13:21:05.534Z,57.40
2017-08-21T13:23:33.087Z,55.60
2017-08-21T13:26:00.602Z,56.10
2017-08-21T13:28:28.169Z,55.90
2017-08-21T13:30:55.680Z,57.30
2017-08-21T13:33:23.206Z,56.90
2017-08-21T13:35:50.735Z,56.70
2017-08-21T13:38:18.449Z,57.30
2017-08-21T13:40:46.640Z,56.60
2017-08-21T13:43:14.936Z,55.20
2017-08-21T13:45:42.461Z,55.80
2017-08-21T13:48:09.972Z,55.30
2017-08-21T13:50:37.512Z,56.60
2017-08-21T13:53:05.028Z,54.80
2017-08-21T13:55:32.948Z,55.40
2017-08-21T13:58:00.459Z,55.70
2017-08-21T14:00:27.998Z,55.60
2017-08-21T14:02:55.509Z,57.30
2017-08-21T14:05:23.034Z,55.60
2017-08-21T14:07:50.567Z,56.50
2017-08-21T14:10:18.091Z,56.40
2017-08-21T14:12:46.448Z,56.50
2017-08-21T14:15:13.948Z,57.80
2017-08-21T14:17:41.480Z,58.50
2017-08-21T14:20:09.041Z,58.10
2017-08-21T14:22:36.583Z,58.20
2017-08-21T14:25:04.121Z,57.30
2017-08-21T14:27:31.652Z,58.40
2017-08-21T14:29:59.191Z,56.70
2017-08-21T14:32:26.709Z,56.00
2017-08-21T14:34:54.238Z,56.20
2017-08-21T14:37:21.743Z,56.40
2017-08-21T14:39:49.299Z,56.80
2017-08-21T14:42:17.217Z,56.60
2017-08-21T14:44:45.827Z,57.30
2017-08-21T14:47:13.336Z,58.60
2017-08-21T14:49:40.828Z,57.80
2017-08-21T14:52:08.339Z,58.50
2017-08-21T14:54:35.847Z,58.10
2017-08-21T14:57:03.415Z,56.40
2017-08-21T14:59:30.925Z,56.80
2017-08-21T15:01:58.454Z,57.10
2017-08-21T15:04:25.959Z,57.10
2017-08-21T15:06:53.478Z,58.60
2017-08-21T15:09:21.005Z,58.90
2017-08-21T15:11:48.534Z,56.80
2017-08-21T15:14:16.915Z,57.30
2017-08-21T15:16:44.950Z,57.40
2017-08-21T15:19:12.486Z,57.90
2017-08-21T15:21:40.007Z,57.50
2017-08-21T15:24:07.540Z,57.30
2017-08-21T15:26:35.125Z,58.10
2017-08-21T15:29:02.654Z,59.10
2017-08-21T15:31:30.459Z,58.10
2017-08-21T15:33:57.968Z,56.80
2017-08-21T15:36:25.488Z,57.00
2017-08-21T15:38:53.009Z,57.70
2017-08-21T15:41:20.572Z,58.60
2017-08-21T15:43:48.083Z,58.30
2017-08-21T15:46:15.948Z,59.60
2017-08-21T15:48:45.709Z,57.80
2017-08-21T15:51:13.264Z,57.10
2017-08-21T15:53:40.762Z,58.10
2017-08-21T15:56:08.286Z,58.40
2017-08-21T15:58:36.084Z,59.40
2017-08-21T16:01:03.630Z,58.30
2017-08-21T16:03:31.134Z,57.90
2017-08-21T16:05:58.657Z,57.30
2017-08-21T16:08:26.199Z,57.80
2017-08-21T16:10:53.741Z,58.00
2017-08-21T16:13:21.262Z,56.70
2017-08-21T16:15:48.766Z,56.60
2017-08-21T16:18:17.167Z,56.70
2017-08-21T16:20:45.398Z,59.40
2017-08-21T16:23:12.919Z,59.10
2017-08-21T16:25:40.418Z,58.60
2017-08-21T16:28:08.286Z,59.10
2017-08-21T16:30:35.815Z,57.10
2017-08-21T16:33:03.335Z,57.90
2017-08-21T16:35:30.868Z,58.40
2017-08-21T16:37:58.416Z,59.00
2017-08-21T16:40:26.011Z,59.00
2017-08-21T16:43:35.260Z,57.50
2017-08-21T16:46:09.127Z,58.60
2017-08-21T16:48:36.741Z,58.10
2017-08-21T16:51:04.367Z,59.30
2017-08-21T16:53:31.983Z,59.90
2017-08-21T16:55:59.582Z,60.20
2017-08-21T16:58:27.171Z,60.00
2017-08-21T17:00:54.818Z,61.20
2017-08-21T17:03:22.411Z,61.50
2017-08-21T17:05:50.018Z,61.80
2017-08-21T17:08:17.649Z,61.50
2017-08-21T17:10:45.224Z,62.40
2017-08-21T17:13:12.847Z,64.10
2017-08-21T17:15:40.474Z,65.20
2017-08-21T17:18:08.159Z,64.30
2017-08-21T17:20:35.876Z,64.00
2017-08-21T17:23:03.495Z,65.70
2017-08-21T17:25:31.120Z,66.90
2017-08-21T17:27:59.616Z,67.10
2017-08-21T17:30:27.275Z,68.10
2017-08-21T17:32:56.025Z,69.10
2017-08-21T17:35:23.656Z,70.30
2017-08-21T17:37:51.271Z,70.70
2017-08-21T17:40:18.922Z,71.20
2017-08-21T17:42:46.767Z,71.70
2017-08-21T17:45:14.322Z,72.50
2017-08-21T17:47:41.902Z,72.80
2017-08-21T17:50:09.545Z,72.10
2017-08-21T17:52:37.238Z,72.40
2017-08-21T17:55:04.814Z,72.60
2017-08-21T17:57:32.435Z,73.00
2017-08-21T18:00:00.036Z,72.60
2017-08-21T18:02:27.586Z,73.10
2017-08-21T18:04:55.250Z,73.40
2017-08-21T18:07:22.867Z,74.00
2017-08-21T18:09:50.471Z,74.60
2017-08-21T18:12:18.069Z,74.70
2017-08-21T18:14:46.234Z,74.80
2017-08-21T18:17:13.834Z,74.80
2017-08-21T18:19:41.462Z,74.20
2017-08-21T18:22:09.055Z,73.00
2017-08-21T18:24:36.668Z,73.60
2017-08-21T18:27:04.299Z,73.00
2017-08-21T18:29:31.961Z,72.90
2017-08-21T18:31:59.625Z,73.10
2017-08-21T18:34:27.223Z,73.40
2017-08-21T18:36:54.876Z,73.90
2017-08-21T18:39:23.303Z,74.00
2017-08-21T18:41:52.231Z,74.10
2017-08-21T18:44:20.691Z,74.50
2017-08-21T18:46:48.351Z,74.10
2017-08-21T18:49:15.997Z,74.50
2017-08-21T18:52:05.398Z,74.70
2017-08-21T18:54:40.506Z,74.90
2017-08-21T18:57:13.780Z,75.10
2017-08-21T18:59:41.354Z,75.40
2017-08-21T19:02:09.108Z,75.50
2017-08-21T19:04:36.660Z,75.80
2017-08-21T19:07:04.198Z,76.20
2017-08-21T19:09:31.879Z,76.60
2017-08-21T19:11:59.445Z,77.10
2017-08-21T19:14:26.972Z,77.40
2017-08-21T19:16:54.495Z,77.60
2017-08-21T19:19:22.005Z,78.20
2017-08-21T19:21:49.545Z,78.50
2017-08-21T19:24:17.055Z,78.40
2017-08-21T19:26:45.079Z,78.60
2017-08-21T19:29:12.627Z,78.00
2017-08-21T19:31:40.146Z,78.00
2017-08-21T19:34:07.687Z,77.90
2017-08-21T19:36:35.201Z,78.30
2017-08-21T19:39:02.711Z,78.20
2017-08-21T19:41:30.255Z,78.30
2017-08-21T19:43:57.767Z,78.20
2017-08-21T19:46:25.286Z,79.20
2017-08-21T19:48:52.795Z,79.40
2017-08-21T19:51:20.310Z,79.40
2017-08-21T19:53:47.877Z,79.70
2017-08-21T19:56:16.290Z,79.90
2017-08-21T19:58:43.834Z,80.60
2017-08-21T20:01:11.342Z,81.10
2017-08-21T20:03:38.880Z,81.30
2017-08-21T20:06:06.406Z,81.20
2017-08-21T20:08:33.931Z,81.20
2017-08-21T20:11:01.460Z,81.60
2017-08-21T20:13:28.981Z,81.40
2017-08-21T20:15:56.520Z,81.80
2017-08-21T20:18:24.032Z,82.10
2017-08-21T20:20:51.567Z,82.00
2017-08-21T20:23:19.083Z,81.30
2017-08-21T20:25:47.798Z,81.20
2017-08-21T20:28:16.545Z,81.80
2017-08-21T20:30:44.058Z,81.60
2017-08-21T20:33:11.590Z,81.60
2017-08-21T20:35:39.132Z,81.60
2017-08-21T20:38:06.668Z,81.40
2017-08-21T20:40:34.214Z,81.60
2017-08-21T20:43:01.743Z,81.00
2017-08-21T20:45:29.478Z,80.90
2017-08-21T20:47:57.021Z,81.10
2017-08-21T20:50:24.546Z,81.00
2017-08-21T20:52:52.069Z,81.20
2017-08-21T20:55:19.628Z,81.60
2017-08-21T20:57:47.197Z,81.80
2017-08-21T21:00:15.144Z,82.30
2017-08-21T21:02:42.778Z,82.50
2017-08-21T21:05:10.310Z,83.00
2017-08-21T21:07:37.853Z,83.30
2017-08-21T21:10:05.390Z,83.50
2017-08-21T21:12:33.103Z,83.20
2017-08-21T21:15:00.617Z,83.10
2017-08-21T21:17:28.161Z,82.30
2017-08-21T21:19:55.676Z,81.60
2017-08-21T21:22:23.177Z,82.30
2017-08-21T21:24:50.711Z,82.70
2017-08-21T21:27:18.213Z,83.10
2017-08-21T21:29:45.739Z,83.00
2017-08-21T21:32:13.247Z,83.00
2017-08-21T21:34:40.766Z,83.00
2017-08-21T21:37:08.275Z,83.30
2017-08-21T21:39:35.794Z,83.40
2017-08-21T21:42:03.310Z,83.40
2017-08-21T21:44:30.819Z,83.20
2017-08-21T21:46:58.363Z,83.30
2017-08-21T21:49:25.862Z,82.90
2017-08-21T21:51:53.389Z,82.70
2017-08-21T21:54:20.885Z,82.90
2017-08-21T21:56:48.447Z,82.90
2017-08-21T21:59:17.065Z,83.10
2017-08-21T22:01:45.196Z,82.40
2017-08-21T22:04:12.738Z,82.10
2017-08-21T22:06:40.245Z,82.10
2017-08-21T22:09:07.769Z,81.90
2017-08-21T22:11:35.287Z,82.10
2017-08-21T22:14:02.814Z,82.70
2017-08-21T22:16:30.323Z,83.40
2017-08-21T22:18:57.866Z,83.50
2017-08-21T22:21:25.387Z,83.20
2017-08-21T22:23:52.907Z,83.00
2017-08-21T22:26:20.431Z,83.30
2017-08-21T22:28:47.959Z,83.20
2017-08-21T22:31:16.087Z,83.10
2017-08-21T22:33:43.605Z,83.60
2017-08-21T22:36:11.156Z,83.30
2017-08-21T22:38:38.666Z,83.70
2017-08-21T22:41:06.167Z,83.60
2017-08-21T22:43:33.696Z,83.60
2017-08-21T22:46:01.201Z,83.60
2017-08-21T22:48:28.752Z,83.50
2017-08-21T22:50:56.259Z,83.50
2017-08-21T22:53:23.783Z,82.60
2017-08-21T22:55:51.288Z,82.70
2017-08-21T22:58:18.801Z,82.90
2017-08-21T23:00:47.199Z,82.90
2017-08-21T23:03:15.195Z,83.40
2017-08-21T23:05:42.710Z,83.40
2017-08-21T23:08:10.213Z,83.00
2017-08-21T23:10:37.737Z,83.20
2017-08-21T23:13:05.247Z,83.20
2017-08-21T23:15:32.883Z,83.50
2017-08-21T23:18:00.382Z,84.20
2017-08-21T23:20:27.907Z,84.00
2017-08-21T23:22:55.481Z,84.20
2017-08-21T23:25:22.993Z,84.40
2017-08-21T23:27:50.527Z,84.40
2017-08-21T23:30:18.046Z,83.80
2017-08-21T23:32:46.578Z,84.20
2017-08-21T23:35:14.082Z,84.30
2017-08-21T23:37:41.614Z,84.40
2017-08-21T23:40:09.109Z,84.30
2017-08-21T23:42:36.626Z,84.70
2017-08-21T23:45:04.176Z,84.50
2017-08-21T23:47:31.670Z,84.80
2017-08-21T23:49:59.204Z,84.80
2017-08-21T23:52:26.720Z,84.50
2017-08-21T23:54:54.238Z,84.80
2017-08-21T23:57:21.751Z,84.70
2017-08-21T23:59:49.300Z,84.10
